Aérodrome :
LOGIN :

S'inscrire | Disclaimer

   EN    FR    IT 

 










Légende :    VFR   VFR Marginal   IFR   IFR Intensif   IFR Très Intensif
Visi : 
Plafond : 
>= 8 km
>= 3000ft
5 à 8 km
1000 à 3000 ft
1500m à 5 km
500 à 1000 ft
800 à 1500m
200 à 500 ft
< 800m
< 200 ft
Symboles :   Orages  Brouillard  Fortes neiges  Fortes précipitations  Vent > 20 kt
SIGMETs :   Divers  Orages  Givrage  Turbulence  Onde Orograph.  Cendres Volcan.







- Altitude de l'aérodrome : 479 ft
- Code IATA : DOL
- Voir les cartes d'approche


LFRG - Deauville

DERNIER METAR :
  • 210730Z AUTO 27005KT 9999 BKN005 BKN013 OVC032 19/18 Q1022 NOSIG

METARs EXPIRÉS :
  • 210700Z AUTO 27003KT 9999 BKN005 BKN010 OVC034 19/18 Q1022 NOSIG
  • 210230Z AUTO 00000KT 9999 FEW007 SCT014 OVC034 19/18 Q1021
  • 210630Z AUTO 24002KT 9999 FEW006 OVC034 18/18 Q1022 TEMPO BKN009
  • 210600Z AUTO 23003KT 210V270 9999 OVC030 18/18 Q1022 TEMPO BKN004
  • 210530Z AUTO VRB03KT 9999 SCT005 BKN010 OVC032 18/18 Q1022 TEMPO BKN004
  • 210500Z AUTO 23004KT 9999 FEW004 OVC032 18/18 Q1021

TAF TAF LFRG
Valide du 21 à 06h jusqu'au 21 à 15h UTC


210500Z 2106/2115 VRB03KT 9999 BKN030
PROB40
TEMPO 2106/2108 BKN004
TEMPO 2106/2110 BKN009
BECMG 2113/2115 31010KT
ATIS : +33 2 31 65 65 36
Pas de NOTAMs connus pour ce terrain.



MET'MAP, la Météo Aéronautique d'un coup d'oeil ! - Copyright ORBIFLY Décembre 2007 - Disclaimer

ORBIFLY MET'MAP TEAM :

Programmation & Développement : Alexandra Zaïnal
Conception & Développement : Baudouin d'Aumeries
Co-Programmation & Développement : Marc-Olivier Méhu
Soutien technique & logistique : Manuel Goepfert

Contact : metmap@orbifly.com




SOURCES & CREDITS :

   NOAA